Lake City, Florida
Current Conditions -  °F | °C
As of 12:55 AM on Sunday 21 Dec 2014 (Local Time) from KLCQ Reporting Station
Overcast Overcast  
Wind Chill: 55°   Ceiling: 800
Heat Index: 55°   Visibility: 10mi
Dew Point: 54°   Wind: 6mph
Humidity: 94%   Direction: 70°ENE
Pressure: 30.12"   Gusts: NA
Location:  30.19°N, 82.64°W
Report Text: KLCQ 210555Z AUTO 07005KT 10SM OVC008 13/12 A3012 RMK AO2
Loading
Personal Weather Stations






























Interactive Weather Map New forecast layout! Learn more

10-Day Weather Forecast

Advertisements
Track Severe Weather on mobile